Time;durP1;ratioP1;P1;durP2;ratioP2;P2;SDS_P1;SDS_P2;PMS_P1;PMS_P2;Temp;Humidity;BMP_temperature;BMP_pressure;BME280_temperature;BME280_humidity;BME280_pressure;Samples;Min_cycle;Max_cycle;Signal;HPM_P1;HPM_P2
2023/03/14 00:01:10;;;;;;;31.88;5.45;;;9.80;99.90;;;;;;5108796;27;20050;-79
2023/03/14 00:03:36;;;;;;;25.23;3.60;;;9.80;99.90;;;;;;5128836;27;20447;-79
2023/03/14 00:06:04;;;;;;;23.30;3.65;;;9.80;99.90;;;;;;5075263;27;20085;-78
2023/03/14 00:08:30;;;;;;;33.40;3.85;;;9.90;99.90;;;;;;5092904;27;20118;-79
2023/03/14 00:10:57;;;;;;;29.65;4.80;;;9.90;99.90;;;;;;5092083;27;20417;-79
2023/03/14 00:13:23;;;;;;;28.45;4.93;;;9.90;99.90;;;;;;5092491;27;20043;-79
2023/03/14 00:15:49;;;;;;;19.75;3.47;;;9.90;99.90;;;;;;5109428;27;20097;-78
2023/03/14 00:18:15;;;;;;;28.15;4.82;;;9.90;99.90;;;;;;5108790;27;20498;-79
2023/03/14 00:20:41;;;;;;;30.52;4.72;;;9.90;99.90;;;;;;5092977;27;20051;-79
2023/03/14 00:23:06;;;;;;;23.58;4.43;;;9.90;99.90;;;;;;5091699;27;20043;-79
2023/03/14 00:25:32;;;;;;;22.15;4.07;;;10.00;99.90;;;;;;5092971;27;20027;-79
2023/03/14 00:27:58;;;;;;;23.10;3.80;;;10.00;99.90;;;;;;5091522;27;20039;-78
2023/03/14 00:30:23;;;;;;;29.15;4.05;;;10.00;99.90;;;;;;5109348;27;20046;-79
2023/03/14 00:32:49;;;;;;;24.88;4.18;;;10.10;99.90;;;;;;5109092;27;20036;-79
2023/03/14 00:35:15;;;;;;;22.75;3.20;;;10.10;99.90;;;;;;5127714;27;20072;-79
2023/03/14 00:37:41;;;;;;;21.27;5.88;;;10.10;99.90;;;;;;5109630;27;20157;-79
2023/03/14 00:40:08;;;;;;;26.40;4.05;;;10.10;99.90;;;;;;5108125;27;20129;-79
2023/03/14 00:42:34;;;;;;;18.02;2.78;;;10.20;99.90;;;;;;5093081;27;20054;-79
2023/03/14 00:45:00;;;;;;;21.20;3.97;;;10.20;99.90;;;;;;5108436;27;20047;-79
2023/03/14 00:47:25;;;;;;;23.58;4.55;;;10.10;99.90;;;;;;5092339;27;20050;-78
2023/03/14 00:49:51;;;;;;;21.50;3.67;;;10.40;99.90;;;;;;5108851;27;20386;-79
2023/03/14 00:52:16;;;;;;;15.95;2.92;;;10.10;99.90;;;;;;5091554;27;20095;-78
2023/03/14 00:54:42;;;;;;;26.60;3.60;;;10.10;99.90;;;;;;5127551;27;20428;-79
2023/03/14 00:57:08;;;;;;;38.25;4.10;;;10.10;99.90;;;;;;5090900;27;20047;-79
2023/03/14 00:59:34;;;;;;;19.83;3.65;;;10.10;99.90;;;;;;5108841;27;20070;-79
2023/03/14 01:01:59;;;;;;;21.17;3.33;;;10.10;99.90;;;;;;5107928;27;20135;-78
2023/03/14 01:04:25;;;;;;;24.00;3.78;;;10.10;99.90;;;;;;5092217;27;20474;-78
2023/03/14 01:06:51;;;;;;;21.23;4.43;;;10.00;99.90;;;;;;5107647;27;20093;-78
2023/03/14 01:09:17;;;;;;;24.80;4.93;;;10.10;99.90;;;;;;5091463;27;20091;-78
2023/03/14 01:11:46;;;;;;;26.08;4.40;;;10.10;99.90;;;;;;5092228;27;20086;-79
2023/03/14 01:14:12;;;;;;;20.65;3.90;;;10.10;99.90;;;;;;5090278;27;20053;-78
2023/03/14 01:16:37;;;;;;;19.85;4.13;;;10.30;99.90;;;;;;5075350;27;20129;-78
2023/03/14 01:19:04;;;;;;;22.17;4.15;;;10.10;99.90;;;;;;5090199;27;20402;-78
2023/03/14 01:21:32;;;;;;;16.15;3.53;;;10.10;99.90;;;;;;5108394;27;20054;-78
2023/03/14 01:23:59;;;;;;;21.55;3.72;;;10.20;99.90;;;;;;5090496;27;20043;-78
2023/03/14 01:26:28;;;;;;;17.67;3.35;;;10.20;99.90;;;;;;5108488;27;20096;-79
2023/03/14 01:28:55;;;;;;;24.65;3.28;;;10.20;99.90;;;;;;5092696;27;20046;-79
2023/03/14 01:31:21;;;;;;;23.92;3.45;;;10.80;99.90;;;;;;5107305;27;20054;-78
2023/03/14 01:33:47;;;;;;;23.70;3.58;;;10.30;99.90;;;;;;5074442;27;20039;-78
2023/03/14 01:36:13;;;;;;;19.63;3.83;;;10.40;99.90;;;;;;5107218;27;20043;-78
2023/03/14 01:38:39;;;;;;;18.63;2.70;;;10.40;99.90;;;;;;5092056;27;20371;-79
2023/03/14 01:41:07;;;;;;;21.60;3.90;;;10.50;99.90;;;;;;5107726;27;20039;-78
2023/03/14 01:43:32;;;;;;;23.75;4.88;;;10.50;99.90;;;;;;5090742;27;20086;-78
2023/03/14 01:46:04;;;;;;;18.15;2.83;;;10.60;99.90;;;;;;5108072;27;20075;-78
2023/03/14 01:48:48;;;;;;;24.75;3.25;;;10.50;99.90;;;;;;5090022;27;20041;-79
2023/03/14 01:51:23;;;;;;;20.05;3.33;;;10.50;99.90;;;;;;5108130;27;20138;-78
2023/03/14 01:53:54;;;;;;;18.35;2.85;;;10.50;99.90;;;;;;5090354;27;20150;-78
2023/03/14 01:56:20;;;;;;;20.77;2.67;;;10.50;99.90;;;;;;5107492;27;20571;-78
2023/03/14 01:58:50;;;;;;;15.20;2.63;;;10.60;99.90;;;;;;5107562;27;20059;-78
2023/03/14 02:01:19;;;;;;;19.92;2.33;;;10.60;99.90;;;;;;5106581;27;20561;-78
2023/03/14 02:03:51;;;;;;;22.02;2.78;;;10.60;99.90;;;;;;5108501;27;20077;-78
2023/03/14 02:06:21;;;;;;;21.40;2.40;;;10.50;99.90;;;;;;5089393;27;20041;-78
2023/03/14 02:08:48;;;;;;;14.52;2.22;;;10.60;99.90;;;;;;5104091;28;20489;-79
2023/03/14 02:11:14;;;;;;;11.35;2.08;;;10.50;99.90;;;;;;5103144;28;20160;-79
2023/03/14 02:13:40;;;;;;;16.70;2.65;;;10.50;99.90;;;;;;5103321;28;20054;-79
2023/03/14 02:16:06;;;;;;;16.45;3.85;;;10.50;99.90;;;;;;5104860;28;20036;-78
2023/03/14 02:18:32;;;;;;;10.10;1.67;;;10.40;99.90;;;;;;5103462;28;20039;-78
2023/03/14 02:21:31;;;;;;;17.95;2.63;;;10.40;99.90;;;;;;5104381;28;20100;-78
2023/03/14 02:24:16;;;;;;;15.13;2.13;;;10.40;99.90;;;;;;5086327;28;20063;-79
2023/03/14 02:27:12;;;;;;;17.98;2.30;;;10.30;99.90;;;;;;5103049;28;20039;-78
2023/03/14 02:30:01;;;;;;;16.50;2.28;;;10.30;99.90;;;;;;5100555;28;20059;-79
2023/03/14 02:32:31;;;;;;;13.95;1.88;;;10.30;99.90;;;;;;5104108;28;20085;-78
2023/03/14 02:34:59;;;;;;;13.82;2.35;;;10.20;99.90;;;;;;5103604;28;20055;-78
2023/03/14 02:37:36;;;;;;;14.30;2.58;;;10.20;99.90;;;;;;5103997;28;20047;-78
2023/03/14 02:40:04;;;;;;;14.00;2.30;;;10.20;99.90;;;;;;5102932;28;20268;-79
2023/03/14 02:42:30;;;;;;;14.13;2.10;;;10.20;99.90;;;;;;5105841;28;20066;-79
2023/03/14 02:45:16;;;;;;;12.25;1.88;;;10.30;99.90;;;;;;5086409;28;20483;-78
2023/03/14 02:47:53;;;;;;;17.33;2.22;;;10.10;99.90;;;;;;5072471;28;20051;-78
2023/03/14 02:50:24;;;;;;;13.18;2.85;;;10.10;99.90;;;;;;5087515;28;20047;-78
2023/03/14 02:52:50;;;;;;;14.77;2.47;;;10.10;99.90;;;;;;5086241;28;20048;-79
2023/03/14 02:55:23;;;;;;;17.70;2.53;;;10.00;99.90;;;;;;5090906;28;20138;-79
2023/03/14 02:57:50;;;;;;;12.27;1.83;;;10.00;99.90;;;;;;5106331;28;20444;-78
2023/03/14 03:00:16;;;;;;;13.27;2.85;;;9.90;99.90;;;;;;5088589;28;20492;-79
2023/03/14 03:02:41;;;;;;;10.82;2.30;;;9.90;99.90;;;;;;5087763;28;20114;-79
2023/03/14 03:05:07;;;;;;;13.50;3.17;;;9.90;99.90;;;;;;5104370;28;20131;-78
2023/03/14 03:07:33;;;;;;;17.40;1.85;;;9.90;99.90;;;;;;5087561;28;20401;-78
2023/03/14 03:09:59;;;;;;;12.10;1.90;;;9.80;99.90;;;;;;5086902;28;20040;-78
2023/03/14 03:12:25;;;;;;;13.02;2.80;;;9.90;99.90;;;;;;5087288;28;20557;-79
2023/03/14 03:14:51;;;;;;;11.40;2.67;;;10.10;99.90;;;;;;5085565;28;20146;-79
2023/03/14 03:17:16;;;;;;;10.52;1.80;;;9.80;99.90;;;;;;5086667;28;20050;-78
2023/03/14 03:19:42;;;;;;;13.73;2.00;;;10.40;99.90;;;;;;5086794;28;20093;-78
2023/03/14 03:22:08;;;;;;;12.05;2.05;;;9.70;99.90;;;;;;5103527;28;20498;-79
2023/03/14 03:24:34;;;;;;;10.68;2.08;;;9.70;99.90;;;;;;5090646;28;20043;-78
2023/03/14 03:26:59;;;;;;;12.07;1.90;;;9.60;99.90;;;;;;5106141;28;20066;-78
2023/03/14 03:29:25;;;;;;;14.50;3.05;;;9.60;99.90;;;;;;5090433;28;20075;-78
2023/03/14 03:31:51;;;;;;;12.48;3.15;;;9.70;99.90;;;;;;5089113;28;20043;-78
2023/03/14 03:34:17;;;;;;;16.77;3.50;;;9.50;99.90;;;;;;5090316;28;20044;-78
2023/03/14 03:36:42;;;;;;;12.27;2.25;;;9.40;99.90;;;;;;5106399;28;20058;-78
2023/03/14 03:39:08;;;;;;;16.33;2.45;;;10.50;99.90;;;;;;5089504;28;20063;-78
2023/03/14 03:41:34;;;;;;;15.57;2.88;;;9.60;99.90;;;;;;5090246;28;20182;-78
2023/03/14 03:43:59;;;;;;;16.55;2.70;;;9.30;99.90;;;;;;5106457;28;20047;-78
2023/03/14 03:46:26;;;;;;;13.95;2.50;;;9.30;99.90;;;;;;5107294;28;20055;-78
2023/03/14 03:48:57;;;;;;;8.18;2.00;;;9.30;99.90;;;;;;5105419;28;20047;-78
2023/03/14 03:51:23;;;;;;;15.73;2.33;;;9.30;99.90;;;;;;5089881;28;20044;-78
2023/03/14 03:53:48;;;;;;;11.57;2.42;;;9.30;99.90;;;;;;5106543;28;20044;-78
2023/03/14 03:56:14;;;;;;;23.45;4.15;;;9.50;99.90;;;;;;5089576;28;20534;-78
2023/03/14 03:58:41;;;;;;;23.38;2.67;;;9.20;99.90;;;;;;5106843;28;20539;-78
2023/03/14 04:01:08;;;;;;;13.63;2.78;;;9.30;99.90;;;;;;5072222;28;20414;-78
2023/03/14 04:03:35;;;;;;;16.38;2.60;;;9.30;99.90;;;;;;5090197;28;20036;-78
2023/03/14 04:06:06;;;;;;;16.85;2.78;;;9.60;99.90;;;;;;5071854;28;20038;-78
2023/03/14 04:08:32;;;;;;;19.55;2.67;;;9.30;99.90;;;;;;5106348;28;20054;-77
2023/03/14 04:10:59;;;;;;;13.55;2.83;;;9.30;99.90;;;;;;5106321;28;20051;-78
2023/03/14 04:13:26;;;;;;;17.83;2.50;;;9.30;99.90;;;;;;5088512;28;20075;-78
2023/03/14 04:15:52;;;;;;;17.05;3.05;;;9.80;99.90;;;;;;5089851;28;20339;-78
2023/03/14 04:18:18;;;;;;;21.48;3.95;;;9.30;99.90;;;;;;5105558;28;20509;-78
2023/03/14 04:20:44;;;;;;;29.75;4.07;;;9.30;99.90;;;;;;5106242;28;20048;-78
2023/03/14 04:23:10;;;;;;;21.65;2.60;;;9.30;99.90;;;;;;5088403;28;20772;-79
2023/03/14 04:25:35;;;;;;;25.42;3.22;;;9.30;99.90;;;;;;5089628;28;20042;-78
2023/03/14 04:28:03;;;;;;;27.83;3.83;;;9.30;99.90;;;;;;5105332;28;20044;-78
2023/03/14 04:30:29;;;;;;;22.70;5.65;;;9.30;99.90;;;;;;5072526;28;20925;-78
2023/03/14 04:32:57;;;;;;;15.25;3.35;;;9.30;99.90;;;;;;5106322;28;20094;-78
2023/03/14 04:35:22;;;;;;;27.90;4.47;;;9.30;99.90;;;;;;5104133;28;20099;-78
2023/03/14 04:37:48;;;;;;;19.80;3.38;;;9.30;99.90;;;;;;5107926;28;20043;-78
2023/03/14 04:40:15;;;;;;;21.65;3.85;;;9.30;99.90;;;;;;5087907;28;20055;-78
2023/03/14 04:42:41;;;;;;;24.55;5.20;;;9.20;99.90;;;;;;5106332;28;20079;-78
2023/03/14 04:45:07;;;;;;;20.38;3.40;;;9.20;99.90;;;;;;5105547;28;20536;-79
2023/03/14 04:47:33;;;;;;;15.93;3.70;;;9.20;99.90;;;;;;5088238;28;20047;-79
2023/03/14 04:49:59;;;;;;;18.45;3.67;;;9.20;99.90;;;;;;5106290;28;20043;-78
2023/03/14 04:52:25;;;;;;;20.98;3.75;;;9.10;99.90;;;;;;5087421;28;20976;-78
2023/03/14 04:54:51;;;;;;;13.27;4.00;;;10.20;99.90;;;;;;5106111;28;20074;-78
2023/03/14 04:57:16;;;;;;;18.73;5.03;;;9.40;99.90;;;;;;5070466;28;20195;-78
2023/03/14 04:59:42;;;;;;;13.63;4.40;;;9.80;99.90;;;;;;5105748;28;20534;-79
2023/03/14 05:02:08;;;;;;;18.33;4.00;;;9.60;99.90;;;;;;5088294;28;20036;-79
2023/03/14 05:04:33;;;;;;;20.55;4.65;;;9.10;99.90;;;;;;5087941;28;20411;-78
2023/03/14 05:07:00;;;;;;;13.45;4.82;;;9.10;99.90;;;;;;5088660;28;20135;-79
2023/03/14 05:09:26;;;;;;;18.65;4.65;;;9.10;99.90;;;;;;5087273;28;20046;-79
2023/03/14 05:11:52;;;;;;;18.52;5.03;;;9.10;99.90;;;;;;5105429;28;20155;-79
2023/03/14 05:14:17;;;;;;;13.35;4.28;;;9.10;99.90;;;;;;5087094;28;20056;-80
2023/03/14 05:16:43;;;;;;;15.15;4.65;;;9.20;99.90;;;;;;5088398;28;20036;-79
2023/03/14 05:19:10;;;;;;;16.70;4.82;;;9.00;99.90;;;;;;5104359;28;20061;-80
2023/03/14 05:21:36;;;;;;;10.82;4.35;;;9.10;99.90;;;;;;5070901;28;20045;-80
2023/03/14 05:24:02;;;;;;;14.07;4.53;;;10.00;99.90;;;;;;5104906;28;20483;-80
2023/03/14 05:26:29;;;;;;;19.23;5.00;;;9.00;99.90;;;;;;5103997;28;20608;-80
2023/03/14 05:28:54;;;;;;;12.77;3.72;;;9.00;99.90;;;;;;5105406;28;20220;-80
2023/03/14 05:31:21;;;;;;;9.10;3.92;;;9.00;99.90;;;;;;5103916;28;20482;-80
2023/03/14 05:33:47;;;;;;;13.93;4.45;;;9.00;99.90;;;;;;5104934;28;20047;-79
2023/03/14 05:36:13;;;;;;;6.97;3.55;;;8.90;99.90;;;;;;5087002;28;20035;-80
2023/03/14 05:38:38;;;;;;;14.85;3.53;;;9.00;99.90;;;;;;5104175;28;20138;-79
2023/03/14 05:41:04;;;;;;;12.18;4.35;;;9.40;99.90;;;;;;5105467;28;20047;-80
2023/03/14 05:43:30;;;;;;;11.13;4.82;;;8.90;99.90;;;;;;5105155;28;20043;-79
2023/03/14 05:45:56;;;;;;;15.85;4.03;;;9.40;99.90;;;;;;5103643;28;20411;-82
2023/03/14 05:48:21;;;;;;;12.77;4.07;;;8.90;99.90;;;;;;5103224;28;20047;-81
2023/03/14 05:50:47;;;;;;;12.02;4.00;;;9.00;99.90;;;;;;5104589;28;20039;-80
2023/03/14 05:53:13;;;;;;;16.42;5.03;;;9.40;99.90;;;;;;5103452;28;20036;-80
2023/03/14 05:55:40;;;;;;;11.35;3.20;;;8.90;99.90;;;;;;5104991;28;20126;-81
2023/03/14 05:58:06;;;;;;;8.18;4.40;;;8.90;99.90;;;;;;5087826;28;20126;-82
2023/03/14 06:00:31;;;;;;;7.78;2.80;;;8.90;99.90;;;;;;5105426;28;20427;-81
2023/03/14 06:02:57;;;;;;;11.70;3.22;;;9.20;99.90;;;;;;5105061;28;20429;-80
2023/03/14 06:05:23;;;;;;;10.80;2.90;;;9.30;99.90;;;;;;5103156;28;20051;-80
2023/03/14 06:07:49;;;;;;;7.45;2.53;;;8.90;99.90;;;;;;5104498;28;20047;-81
2023/03/14 06:10:15;;;;;;;4.70;2.40;;;8.90;99.90;;;;;;5103112;28;20044;-80
2023/03/14 06:12:40;;;;;;;6.22;2.63;;;8.90;99.90;;;;;;5104387;28;20036;-79
2023/03/14 06:15:07;;;;;;;5.55;2.13;;;8.90;99.90;;;;;;5069835;28;20127;-79
2023/03/14 06:17:32;;;;;;;5.78;2.15;;;8.90;99.90;;;;;;5086567;28;20065;-80
2023/03/14 06:19:58;;;;;;;7.65;1.98;;;8.90;99.90;;;;;;5105635;28;20480;-81
2023/03/14 06:22:24;;;;;;;9.23;1.67;;;8.90;99.90;;;;;;5104267;28;20050;-80
2023/03/14 06:24:50;;;;;;;4.15;1.42;;;9.00;99.90;;;;;;5104911;28;20035;-81
2023/03/14 06:27:16;;;;;;;6.85;1.08;;;8.30;99.90;;;;;;5105587;28;20036;-79
2023/03/14 06:29:41;;;;;;;3.20;0.70;;;8.90;99.90;;;;;;5106684;28;20039;-80
2023/03/14 06:32:07;;;;;;;7.80;0.98;;;9.80;99.90;;;;;;5106549;28;20093;-80
2023/03/14 06:34:33;;;;;;;7.30;0.80;;;8.60;99.90;;;;;;5088789;28;20079;-80
2023/03/14 06:36:58;;;;;;;7.20;1.17;;;8.50;99.90;;;;;;5087849;28;20047;-80
2023/03/14 06:39:25;;;;;;;11.60;1.13;;;8.10;99.90;;;;;;5106068;28;20067;-80
2023/03/14 06:41:50;;;;;;;17.75;1.42;;;8.70;99.90;;;;;;5109103;28;20051;-79
2023/03/14 06:44:16;;;;;;;15.40;2.05;;;7.70;99.90;;;;;;5087361;28;20402;-80
2023/03/14 06:46:42;;;;;;;16.25;1.70;;;7.60;99.90;;;;;;5106725;28;20088;-79
2023/03/14 06:49:07;;;;;;;12.48;1.50;;;7.40;99.90;;;;;;5086597;28;20108;-79
2023/03/14 06:51:33;;;;;;;14.50;1.48;;;8.30;99.90;;;;;;5069683;28;20036;-80
2023/03/14 06:53:59;;;;;;;17.02;1.58;;;8.50;99.90;;;;;;5086718;28;20501;-80
2023/03/14 06:56:25;;;;;;;16.75;2.08;;;8.00;99.90;;;;;;5102915;28;20128;-84
2023/03/14 06:58:50;;;;;;;12.00;1.23;;;7.40;99.90;;;;;;5107980;28;20035;-82
2023/03/14 07:01:25;;;;;;;13.73;1.40;;;7.30;99.90;;;;;;5106601;28;20047;-81
2023/03/14 07:03:51;;;;;;;9.73;1.58;;;7.20;99.90;;;;;;5090828;28;20044;-83
2023/03/14 07:06:16;;;;;;;13.07;1.30;;;6.00;99.90;;;;;;5073785;28;20032;-81
2023/03/14 07:08:42;;;;;;;4.72;0.90;;;5.90;99.90;;;;;;5106732;28;20081;-83
2023/03/14 07:11:10;;;;;;;10.38;1.15;;;5.70;99.90;;;;;;5073578;28;20086;-80
2023/03/14 07:13:39;;;;;;;3.10;0.77;;;6.40;99.90;;;;;;5089733;28;20459;-81
2023/03/14 07:16:06;;;;;;;8.10;0.98;;;5.50;99.90;;;;;;5091173;28;20532;-81
2023/03/14 07:18:32;;;;;;;9.20;0.63;;;5.30;99.90;;;;;;5089540;28;20398;-79
2023/03/14 07:20:57;;;;;;;10.13;0.90;;;5.20;99.90;;;;;;5107502;28;20075;-80
2023/03/14 07:23:23;;;;;;;9.63;0.65;;;5.30;99.90;;;;;;5089962;28;20503;-79
2023/03/14 07:25:50;;;;;;;10.60;0.88;;;5.00;99.90;;;;;;5056333;28;20043;-80
2023/03/14 07:28:16;;;;;;;6.20;0.45;;;6.50;99.90;;;;;;5090312;28;20063;-80
2023/03/14 07:30:42;;;;;;;5.20;1.00;;;5.00;99.90;;;;;;5088837;28;20040;-80
2023/03/14 07:33:07;;;;;;;3.05;0.63;;;4.80;99.90;;;;;;5073547;28;20110;-79
2023/03/14 07:35:33;;;;;;;4.28;0.30;;;4.80;99.90;;;;;;5105696;28;20544;-80
2023/03/14 07:37:59;;;;;;;6.38;0.68;;;4.60;99.90;;;;;;5090687;28;20130;-79
2023/03/14 07:40:25;;;;;;;3.85;0.40;;;6.20;99.90;;;;;;5072480;28;20035;-80
2023/03/14 07:42:51;;;;;;;5.45;0.65;;;4.60;99.90;;;;;;5106520;28;20564;-80
2023/03/14 07:45:17;;;;;;;4.72;0.30;;;5.10;99.90;;;;;;5090255;28;20372;-80
2023/03/14 07:47:42;;;;;;;1.25;0.30;;;4.60;99.90;;;;;;5089094;28;20076;-80
2023/03/14 07:50:09;;;;;;;3.00;0.28;;;4.60;99.90;;;;;;5106803;28;20453;-80
2023/03/14 07:52:35;;;;;;;4.15;0.32;;;4.60;99.90;;;;;;5105360;28;20130;-79
2023/03/14 07:55:00;;;;;;;3.55;0.55;;;5.70;99.90;;;;;;5106551;28;20673;-79
2023/03/14 07:57:26;;;;;;;3.53;0.35;;;5.30;99.90;;;;;;5105482;28;20040;-80
2023/03/14 07:59:52;;;;;;;2.75;0.28;;;4.70;99.90;;;;;;5072456;28;20055;-80
2023/03/14 08:02:20;;;;;;;9.63;0.40;;;4.60;99.90;;;;;;5072313;28;20113;-79
2023/03/14 08:04:45;;;;;;;2.53;0.57;;;4.70;99.90;;;;;;5107007;28;20118;-79
2023/03/14 08:07:11;;;;;;;3.35;0.20;;;5.90;99.90;;;;;;5106638;28;20506;-80
2023/03/14 08:09:37;;;;;;;4.38;0.50;;;6.30;99.90;;;;;;5103915;28;20040;-80
2023/03/14 08:12:02;;;;;;;5.75;0.40;;;4.80;99.90;;;;;;5107621;28;20055;-79
2023/03/14 08:14:29;;;;;;;6.82;0.40;;;4.90;99.90;;;;;;5071309;28;20131;-80
2023/03/14 08:16:55;;;;;;;6.47;0.82;;;4.90;99.90;;;;;;5089047;28;20075;-79
2023/03/14 08:19:20;;;;;;;1.60;0.35;;;5.00;99.90;;;;;;5105584;28;20123;-79
2023/03/14 08:21:46;;;;;;;4.03;0.40;;;6.50;99.90;;;;;;5106054;28;20048;-80
2023/03/14 08:24:12;;;;;;;7.72;1.02;;;5.10;99.90;;;;;;5107858;28;20043;-81
2023/03/14 08:26:38;;;;;;;7.55;0.82;;;6.40;99.90;;;;;;5087610;28;20083;-79
2023/03/14 08:29:04;;;;;;;6.60;0.60;;;5.30;99.90;;;;;;5106292;28;20093;-80
2023/03/14 08:31:30;;;;;;;5.53;0.93;;;6.80;99.90;;;;;;5106278;28;20047;-79
2023/03/14 08:33:59;;;;;;;16.73;1.10;;;6.10;99.90;;;;;;5107511;28;20122;-79
2023/03/14 08:36:25;;;;;;;6.25;0.85;;;6.70;99.90;;;;;;5105164;28;20050;-78
2023/03/14 08:38:51;;;;;;;7.60;1.17;;;5.70;99.90;;;;;;5106356;28;20073;-78
2023/03/14 08:41:16;;;;;;;7.47;1.23;;;5.60;99.90;;;;;;5107650;28;20467;-78
2023/03/14 08:43:42;;;;;;;13.15;1.45;;;5.80;99.90;;;;;;5103982;28;20115;-78
2023/03/14 08:46:08;;;;;;;12.07;2.50;;;7.00;99.90;;;;;;5071938;28;20051;-79
2023/03/14 08:48:33;;;;;;;12.98;2.95;;;5.80;99.90;;;;;;5070460;28;20051;-78
2023/03/14 08:51:12;;;;;;;12.38;1.10;;;5.90;99.90;;;;;;5071755;28;20051;-78
2023/03/14 08:53:38;;;;;;;9.15;1.13;;;5.90;99.90;;;;;;5104996;28;20079;-79
2023/03/14 08:56:05;;;;;;;11.60;1.98;;;7.10;99.90;;;;;;5104153;28;20082;-80
2023/03/14 08:58:32;;;;;;;7.72;1.38;;;6.00;99.90;;;;;;5105365;28;20122;-79
2023/03/14 09:00:58;;;;;;;21.17;1.75;;;6.10;99.90;;;;;;5103746;28;20062;-80
2023/03/14 09:03:24;;;;;;;12.10;2.25;;;7.40;99.90;;;;;;5106065;28;20036;-80
2023/03/14 09:05:51;;;;;;;16.10;2.83;;;7.10;99.90;;;;;;5104458;28;20054;-79
2023/03/14 09:08:17;;;;;;;14.07;2.10;;;6.40;99.90;;;;;;5120116;27;20051;-79
2023/03/14 09:10:42;;;;;;;13.55;1.77;;;6.60;99.90;;;;;;5108305;27;20096;-79
2023/03/14 09:13:08;;;;;;;14.15;2.15;;;7.50;99.90;;;;;;5126212;27;20043;-79
2023/03/14 09:15:34;;;;;;;12.40;1.88;;;7.00;99.90;;;;;;5108724;27;20066;-78
2023/03/14 09:17:59;;;;;;;21.63;2.20;;;7.30;99.90;;;;;;5125398;27;20063;-78
2023/03/14 09:20:25;;;;;;;26.85;2.70;;;8.50;99.90;;;;;;5107990;27;20043;-78
2023/03/14 09:22:51;;;;;;;27.30;2.58;;;7.50;99.90;;;;;;5090658;27;20054;-78
2023/03/14 09:25:17;;;;;;;21.55;3.10;;;8.30;99.90;;;;;;5108231;27;20092;-78
2023/03/14 09:27:42;;;;;;;16.42;3.08;;;7.50;99.90;;;;;;5107515;27;20043;-79
2023/03/14 09:30:09;;;;;;;25.52;2.72;;;8.10;99.90;;;;;;5107573;27;20050;-78
2023/03/14 09:32:35;;;;;;;21.17;2.47;;;7.30;99.90;;;;;;5126587;27;20078;-78
2023/03/14 09:35:01;;;;;;;28.85;3.00;;;7.20;99.90;;;;;;5106463;27;20084;-78
2023/03/14 09:37:26;;;;;;;18.13;2.30;;;7.20;99.90;;;;;;5126391;27;20035;-78
2023/03/14 09:39:52;;;;;;;13.55;2.22;;;7.10;99.90;;;;;;5106125;27;20103;-79
2023/03/14 09:42:22;;;;;;;20.52;2.50;;;7.10;99.90;;;;;;5126417;27;20039;-78
2023/03/14 09:44:54;;;;;;;16.65;2.50;;;7.00;99.90;;;;;;5125536;27;20126;-79
2023/03/14 09:47:21;;;;;;;14.27;1.77;;;7.00;99.90;;;;;;5126033;27;20042;-78
2023/03/14 09:49:47;;;;;;;14.00;1.77;;;7.00;99.90;;;;;;5108064;27;20043;-78
2023/03/14 09:52:30;;;;;;;12.88;1.20;;;7.00;99.90;;;;;;5106310;27;20133;-79
2023/03/14 09:54:59;;;;;;;25.67;3.70;;;7.00;99.90;;;;;;5108255;27;20401;-78
2023/03/14 09:57:26;;;;;;;12.95;2.17;;;7.00;99.90;;;;;;5106641;27;20077;-79
2023/03/14 10:00:04;;;;;;;35.33;3.50;;;7.00;99.90;;;;;;5091457;27;20130;-80
2023/03/14 10:02:35;;;;;;;17.65;3.47;;;7.50;99.90;;;;;;5107989;27;20118;-79
2023/03/14 10:05:00;;;;;;;24.45;3.22;;;7.40;99.90;;;;;;5106693;27;20050;-80
2023/03/14 10:07:32;;;;;;;19.17;1.92;;;8.00;99.90;;;;;;5107524;28;20047;-79
2023/03/14 10:09:59;;;;;;;15.32;1.80;;;7.10;99.90;;;;;;5106161;28;20090;-79
2023/03/14 10:12:35;;;;;;;28.85;2.53;;;6.90;99.90;;;;;;5107323;27;20046;-79
2023/03/14 10:15:10;;;;;;;22.70;3.50;;;7.00;99.90;;;;;;5090323;27;20054;-79
2023/03/14 10:17:41;;;;;;;18.25;2.30;;;7.00;99.90;;;;;;5090228;27;20042;-78
2023/03/14 10:20:32;;;;;;;22.85;3.15;;;7.00;99.90;;;;;;5090737;27;20055;-78
2023/03/14 10:23:15;;;;;;;15.23;1.65;;;7.20;99.90;;;;;;5089385;28;20046;-78
2023/03/14 10:25:44;;;;;;;25.55;2.72;;;7.40;99.90;;;;;;5090437;28;20051;-78
2023/03/14 10:28:42;;;;;;;15.65;2.92;;;7.70;99.90;;;;;;5107268;28;20043;-78
2023/03/14 10:31:08;;;;;;;12.32;1.73;;;7.40;99.90;;;;;;5061588;27;20059;-78
2023/03/14 10:33:37;;;;;;;15.10;2.28;;;7.40;99.90;;;;;;5111227;27;20054;-77
2023/03/14 10:36:15;;;;;;;14.60;2.30;;;7.40;99.90;;;;;;5110569;27;20047;-78
2023/03/14 10:38:41;;;;;;;12.38;2.25;;;7.40;99.90;;;;;;5111035;27;20126;-78
2023/03/14 10:41:20;;;;;;;10.63;1.52;;;8.00;99.90;;;;;;5077705;27;20129;-77
2023/03/14 10:43:51;;;;;;;17.63;1.83;;;7.40;99.90;;;;;;5109815;27;20544;-78
2023/03/14 10:46:18;;;;;;;19.35;2.45;;;7.70;99.90;;;;;;5078099;27;20438;-78
2023/03/14 10:48:45;;;;;;;14.38;2.65;;;7.80;99.90;;;;;;5093105;27;20089;-77
2023/03/14 10:51:17;;;;;;;19.08;2.03;;;7.80;99.90;;;;;;5111127;27;20039;-77
2023/03/14 10:54:11;;;;;;;11.65;1.80;;;8.80;99.90;;;;;;5110905;27;20058;-76
2023/03/14 10:56:37;;;;;;;26.63;2.15;;;9.20;99.90;;;;;;5128540;27;20494;-77
2023/03/14 10:59:11;;;;;;;10.05;1.45;;;8.00;99.90;;;;;;5111094;27;20429;-77
2023/03/14 11:02:15;;;;;;;8.85;1.00;;;7.80;99.90;;;;;;5110182;27;20035;-77
2023/03/14 11:05:06;;;;;;;6.90;0.93;;;7.70;99.90;;;;;;5110208;27;20057;-78
2023/03/14 11:07:42;;;;;;;11.65;1.20;;;7.60;99.90;;;;;;5110937;27;20448;-78
2023/03/14 11:10:20;;;;;;;9.95;1.20;;;7.40;99.90;;;;;;5110288;27;20502;-77
2023/03/14 11:13:02;;;;;;;10.30;1.13;;;7.30;99.90;;;;;;5093122;27;20565;-77
2023/03/14 11:15:32;;;;;;;15.00;2.33;;;6.10;99.90;;;;;;5129761;27;20090;-78
2023/03/14 11:18:19;;;;;;;8.68;1.10;;;7.50;99.90;;;;;;5109786;27;20069;-78
2023/03/14 11:21:15;;;;;;;4.40;0.82;;;7.50;99.90;;;;;;5093990;27;20494;-78
2023/03/14 11:23:47;;;;;;;5.85;1.02;;;7.50;99.90;;;;;;5093452;27;20513;-79
2023/03/14 11:26:21;;;;;;;7.03;1.63;;;7.50;99.90;;;;;;5109170;27;20035;-79
2023/03/14 11:29:02;;;;;;;8.35;1.38;;;7.40;99.90;;;;;;5110801;27;20127;-78
2023/03/14 11:31:35;;;;;;;8.95;1.02;;;7.50;99.90;;;;;;5109610;27;20039;-79
2023/03/14 11:34:00;;;;;;;;;;;7.60;99.90;;;;;;5094422;27;20129;-78
2023/03/14 11:36:37;;;;;;;7.45;0.80;;;7.80;97.60;;;;;;5110670;27;19962;-79
2023/03/14 11:39:17;;;;;;;4.57;0.90;;;7.90;99.90;;;;;;5092054;27;20047;-78
2023/03/14 11:41:52;;;;;;;12.10;1.35;;;8.10;99.90;;;;;;5111107;27;20405;-78
2023/03/14 11:44:47;;;;;;;8.15;0.70;;;8.10;99.90;;;;;;5109629;27;20719;-79
2023/03/14 11:47:22;;;;;;;9.93;0.90;;;9.10;98.90;;;;;;5107730;27;20047;-79
2023/03/14 11:50:00;;;;;;;9.30;1.65;;;8.60;98.70;;;;;;5110429;27;20051;-79
2023/03/14 11:52:38;;;;;;;10.30;1.10;;;8.40;99.50;;;;;;5092327;27;20395;-79
2023/03/14 11:55:29;;;;;;;9.20;0.90;;;8.50;99.90;;;;;;5110321;27;20047;-78
2023/03/14 11:58:01;;;;;;;8.98;0.93;;;8.70;99.20;;;;;;5090035;27;20054;-79
2023/03/14 12:00:27;;;;;;;10.35;1.40;;;9.00;99.80;;;;;;5092052;27;20447;-79
2023/03/14 12:03:04;;;;;;;7.40;0.90;;;9.40;98.90;;;;;;5077091;27;20519;-79
2023/03/14 12:05:46;;;;;;;10.02;1.42;;;9.00;98.20;;;;;;5108860;27;20051;-80
2023/03/14 12:08:22;;;;;;;14.93;1.38;;;8.90;97.10;;;;;;5109853;27;20051;-79
2023/03/14 12:11:18;;;;;;;17.38;1.00;;;8.70;97.00;;;;;;5092705;27;20055;-79
2023/03/14 12:13:48;;;;;;;8.65;1.08;;;8.70;96.80;;;;;;5108764;27;20135;-79
2023/03/14 12:16:23;;;;;;;14.73;1.60;;;8.60;98.90;;;;;;5093114;27;20047;-80
2023/03/14 12:18:50;;;;;;;13.00;1.20;;;8.40;98.70;;;;;;5108806;27;20049;-79
2023/03/14 12:21:16;;;;;;;13.48;1.63;;;8.20;99.30;;;;;;5092074;27;20129;-79
2023/03/14 12:23:48;;;;;;;10.05;1.50;;;9.20;99.90;;;;;;5075875;27;20039;-79
2023/03/14 12:26:17;;;;;;;9.88;1.20;;;8.00;99.30;;;;;;5108063;27;20039;-79
2023/03/14 12:29:09;;;;;;;13.02;3.08;;;7.80;99.90;;;;;;5109629;27;20051;-79
2023/03/14 12:31:41;;;;;;;15.63;1.75;;;8.80;99.90;;;;;;5077713;27;20054;-79
2023/03/14 12:34:10;;;;;;;15.43;1.50;;;8.10;99.90;;;;;;5108809;27;20059;-78
2023/03/14 12:36:50;;;;;;;19.33;1.20;;;7.50;99.90;;;;;;5109337;27;20342;-78
2023/03/14 12:39:37;;;;;;;9.40;2.30;;;7.40;99.90;;;;;;5108019;27;20043;-78
2023/03/14 12:42:14;;;;;;;13.45;1.92;;;7.40;99.90;;;;;;5109249;27;20047;-78
2023/03/14 12:44:48;;;;;;;22.52;3.47;;;7.40;99.90;;;;;;5108515;27;20039;-78
2023/03/14 12:47:20;;;;;;;13.02;1.45;;;7.50;99.90;;;;;;5108453;27;20342;-79
2023/03/14 12:49:48;;;;;;;11.23;1.70;;;7.50;99.90;;;;;;5109549;27;20103;-79
2023/03/14 12:52:18;;;;;;;12.85;1.25;;;7.50;99.90;;;;;;5107577;27;20518;-78
2023/03/14 12:55:10;;;;;;;9.88;1.60;;;8.00;99.90;;;;;;5108585;27;20055;-79
2023/03/14 12:57:48;;;;;;;10.68;1.25;;;7.30;99.90;;;;;;5108393;27;20081;-79